Terminal Aerodrome Forecast
Issued by NWS Springfield, MO

Home | Current Version | Previous Version | Text Only | Print | Product List | Glossary On
Versions: 1 2 3 4 5 6 7 8 9 10 11 12 13 14 15 16 17 18 19 20 21 22 23 24 25 26
000
FTUS43 KSGF 280500
TAFSGF
TAF
KSGF 280520Z 2806/2906 12004KT P6SM BKN040 BKN060
     FM281000 14008KT P6SM VCTS OVC040CB
      TEMPO 2812/2815 4SM -TSRA BR OVC030CB
     FM281800 18008KT P6SM VCTS BKN050CB
      TEMPO 2818/2821 4SM -TSRA BR OVC040CB
     FM290200 16009KT P6SM VCTS BKN050CB OVC100=

USA.gov is the U.S. government's official web portal to all federal, state and local government web resources and services.